createdAt,value
2019-03-16T00:00:07.360Z,96165.72
2019-03-16T00:02:40.725Z,96152.23
2019-03-16T00:05:09.806Z,96164.40
2019-03-16T00:07:38.895Z,96164.39
2019-03-16T00:10:08.088Z,94673.69
2019-03-16T00:12:37.131Z,96171.29
2019-03-16T00:15:06.358Z,96173.38
2019-03-16T00:17:39.949Z,96165.20
2019-03-16T00:20:12.227Z,96171.28
2019-03-16T00:22:41.315Z,96161.25
2019-03-16T00:25:10.606Z,96175.52
2019-03-16T00:27:41.341Z,96173.11
2019-03-16T00:30:10.499Z,96170.48
2019-03-16T00:32:39.567Z,96170.72
2019-03-16T00:35:20.641Z,96164.66
2019-03-16T00:37:49.714Z,96160.44
2019-03-16T00:40:18.776Z,96154.64
2019-03-16T00:42:47.827Z,96160.69
2019-03-16T00:45:16.881Z,96168.09
2019-03-16T00:47:47.397Z,96139.56
2019-03-16T00:50:16.466Z,96160.98
2019-03-16T00:52:52.142Z,96154.63
2019-03-16T00:55:21.232Z,96151.72
2019-03-16T00:57:50.281Z,96161.75
2019-03-16T01:00:20.314Z,96156.73
2019-03-16T01:02:49.343Z,96167.33
2019-03-16T01:05:18.748Z,96162.55
2019-03-16T01:07:51.871Z,96160.72
2019-03-16T01:10:20.919Z,96177.36
2019-03-16T01:12:51.292Z,96189.24
2019-03-16T01:15:26.348Z,96156.75
2019-03-16T01:17:58.434Z,96170.48
2019-03-16T01:20:33.649Z,96177.63
2019-03-16T01:23:02.778Z,96170.48
2019-03-16T01:25:33.221Z,96175.76
2019-03-16T01:28:03.356Z,96174.98
2019-03-16T01:30:32.418Z,96173.39
2019-03-16T01:33:05.136Z,96181.31
2019-03-16T01:35:34.222Z,96164.14
2019-03-16T01:38:03.359Z,96153.56
2019-03-16T01:40:33.817Z,96178.68
2019-03-16T01:43:05.305Z,96176.58
2019-03-16T01:45:34.545Z,96169.69
2019-03-16T01:48:05.240Z,96165.45
2019-03-16T01:50:36.972Z,96176.84
2019-03-16T01:53:09.609Z,96158.06
2019-03-16T01:55:38.707Z,96168.36
2019-03-16T01:58:11.432Z,96174.19
2019-03-16T02:00:43.709Z,96170.50
2019-03-16T02:03:12.770Z,96183.95
2019-03-16T02:05:42.737Z,96163.62
2019-03-16T02:08:15.171Z,95967.78
2019-03-16T02:10:48.904Z,96162.55
2019-03-16T02:13:22.427Z,96175.52
2019-03-16T02:15:53.059Z,96179.72
2019-03-16T02:18:22.197Z,96173.11
2019-03-16T02:20:52.712Z,96167.33
2019-03-16T02:23:21.791Z,96171.02
2019-03-16T02:25:53.773Z,96171.80
2019-03-16T02:28:27.388Z,96176.03
2019-03-16T02:30:56.551Z,96153.31
2019-03-16T02:33:25.644Z,96143.80
2019-03-16T02:35:56.150Z,96147.75
2019-03-16T02:38:27.061Z,96151.73
2019-03-16T02:40:57.974Z,96146.95
2019-03-16T02:43:28.211Z,96123.70
2019-03-16T02:46:01.880Z,96148.03
2019-03-16T02:48:30.936Z,96141.42
2019-03-16T02:50:59.998Z,96149.33
2019-03-16T02:53:29.082Z,96159.39
2019-03-16T02:55:58.156Z,96156.75
2019-03-16T02:58:27.393Z,96166.27
2019-03-16T03:00:57.872Z,96146.95
2019-03-16T03:03:29.717Z,96140.88
2019-03-16T03:06:00.666Z,96154.09
2019-03-16T03:08:30.909Z,96147.75
2019-03-16T03:11:05.778Z,96155.95
2019-03-16T03:13:36.073Z,96159.37
2019-03-16T03:16:14.692Z,96181.86
2019-03-16T03:18:49.295Z,96184.48
2019-03-16T03:21:16.299Z,96177.35
2019-03-16T03:23:53.706Z,96203.28
2019-03-16T03:26:22.875Z,96174.97
2019-03-16T03:28:51.915Z,96190.06
2019-03-16T03:31:20.996Z,96179.73
2019-03-16T03:33:59.953Z,96196.92
2019-03-16T03:36:23.832Z,96176.02
2019-03-16T03:38:59.611Z,96183.17
2019-03-16T03:41:29.244Z,96184.49
2019-03-16T03:43:58.322Z,96177.09
2019-03-16T03:46:27.383Z,96183.46
2019-03-16T03:48:56.438Z,96178.15
2019-03-16T03:51:25.522Z,96188.19
2019-03-16T03:53:56.357Z,96184.75
2019-03-16T03:56:25.477Z,96188.19
2019-03-16T03:59:00.219Z,96184.20
2019-03-16T04:01:31.171Z,96194.00
2019-03-16T04:04:14.026Z,96205.60
2019-03-16T04:06:31.545Z,96207.48
2019-03-16T04:09:00.654Z,96218.84
2019-03-16T04:11:35.489Z,96194.28
2019-03-16T04:14:07.916Z,96219.12
2019-03-16T04:16:37.416Z,96203.75
2019-03-16T04:19:11.223Z,96220.14
2019-03-16T04:21:40.303Z,96215.64
2019-03-16T04:24:10.276Z,96207.19
2019-03-16T04:26:39.325Z,96226.52
2019-03-16T04:29:08.381Z,96227.55
2019-03-16T04:31:37.466Z,96235.01
2019-03-16T04:34:06.579Z,96227.59
2019-03-16T04:36:35.762Z,96233.14
2019-03-16T04:39:06.885Z,96238.41
2019-03-16T04:41:37.027Z,96246.09
2019-03-16T04:44:09.848Z,96232.34
2019-03-16T04:46:39.719Z,96227.06
2019-03-16T04:49:08.824Z,96224.42
2019-03-16T04:51:37.913Z,96235.53
2019-03-16T04:54:07.007Z,96227.08
2019-03-16T04:56:36.061Z,96230.25
2019-03-16T04:59:05.130Z,96226.81
2019-03-16T05:01:34.171Z,96222.84
2019-03-16T05:04:03.310Z,96222.55
2019-03-16T05:06:32.355Z,96223.60
2019-03-16T05:09:01.440Z,96225.98
2019-03-16T05:11:30.468Z,96215.41
2019-03-16T05:13:59.554Z,96210.38
2019-03-16T05:16:28.575Z,96217.28
2019-03-16T05:18:57.671Z,96206.16
2019-03-16T05:21:26.738Z,96214.38
2019-03-16T05:23:55.795Z,96219.93
2019-03-16T05:26:24.851Z,96220.98
2019-03-16T05:28:53.908Z,96225.22
2019-03-16T05:31:22.970Z,96232.34
2019-03-16T05:33:52.014Z,96244.24
2019-03-16T05:36:21.132Z,96236.02
2019-03-16T05:38:50.162Z,96242.08
2019-03-16T05:41:19.301Z,96249.25
2019-03-16T05:43:48.365Z,96248.22
2019-03-16T05:46:18.496Z,96253.49
2019-03-16T05:48:47.445Z,96256.63
2019-03-16T05:51:17.506Z,96266.15
2019-03-16T05:53:46.585Z,96262.98
2019-03-16T05:56:16.988Z,96264.57
2019-03-16T05:58:47.515Z,96273.31
2019-03-16T06:01:16.649Z,96269.89
2019-03-16T06:03:47.827Z,96268.27
2019-03-16T06:06:16.806Z,96279.63
2019-03-16T06:08:45.912Z,96278.27
2019-03-16T06:11:14.951Z,96274.30
2019-03-16T06:13:43.994Z,96277.75
2019-03-16T06:16:13.062Z,96276.69
2019-03-16T06:18:42.117Z,96282.21
2019-03-16T06:21:12.742Z,96281.50
2019-03-16T06:23:47.150Z,96284.38
2019-03-16T06:26:22.192Z,96289.47
2019-03-16T06:28:55.709Z,94953.63
2019-03-16T06:31:28.199Z,96280.48
2019-03-16T06:34:03.038Z,96291.53
2019-03-16T06:36:33.847Z,96296.11
2019-03-16T06:39:04.170Z,96291.07
2019-03-16T06:41:34.949Z,96299.49
2019-03-16T06:44:03.954Z,96281.48
2019-03-16T06:46:34.253Z,96284.66
2019-03-16T06:49:06.813Z,96301.05
2019-03-16T06:51:41.947Z,96299.22
2019-03-16T06:54:12.623Z,96292.07
2019-03-16T06:56:43.464Z,96309.22
2019-03-16T06:59:19.737Z,96310.03
2019-03-16T07:01:52.535Z,96312.63
2019-03-16T07:04:23.307Z,96306.59
2019-03-16T07:06:54.341Z,96310.78
2019-03-16T07:09:27.233Z,96319.50
2019-03-16T07:12:05.415Z,96325.83
2019-03-16T07:14:34.535Z,96322.09
2019-03-16T07:17:03.571Z,96337.52
2019-03-16T07:19:34.011Z,96339.59
2019-03-16T07:22:05.198Z,96347.47
2019-03-16T07:24:35.859Z,96335.86
2019-03-16T07:27:09.344Z,96343.33
2019-03-16T07:29:41.957Z,96323.42
2019-03-16T07:32:11.001Z,96331.90
2019-03-16T07:34:40.471Z,96341.39
2019-03-16T07:37:09.505Z,96351.20
2019-03-16T07:39:42.098Z,96354.94
2019-03-16T07:42:11.187Z,96345.11
2019-03-16T07:44:44.645Z,96347.75
2019-03-16T07:47:17.231Z,96354.12
2019-03-16T07:49:49.327Z,96354.94
2019-03-16T07:52:18.825Z,96343.81
2019-03-16T07:54:50.339Z,96345.88
2019-03-16T07:57:39.430Z,96349.11
2019-03-16T08:00:00.915Z,96342.23
2019-03-16T08:02:31.406Z,96357.77
2019-03-16T08:05:17.401Z,96362.80
2019-03-16T08:07:35.914Z,96365.44
2019-03-16T08:10:05.203Z,96366.48
2019-03-16T08:12:34.711Z,96370.25
2019-03-16T08:15:06.713Z,96380.92
2019-03-16T08:17:40.459Z,96384.07
2019-03-16T08:20:09.692Z,96383.58
2019-03-16T08:22:41.520Z,96383.46
2019-03-16T08:25:17.104Z,96379.80
2019-03-16T08:27:53.953Z,96379.67
2019-03-16T08:30:19.918Z,96386.11
2019-03-16T08:32:49.956Z,96384.55
2019-03-16T08:35:19.422Z,96376.65
2019-03-16T08:37:48.551Z,96383.62
2019-03-16T08:40:24.940Z,96382.89
2019-03-16T08:42:54.201Z,96384.52
2019-03-16T08:45:26.188Z,96390.25
2019-03-16T08:47:56.762Z,96389.80
2019-03-16T08:50:28.634Z,96384.73
2019-03-16T08:53:03.895Z,96393.29
2019-03-16T08:55:32.966Z,96397.30
2019-03-16T08:58:06.363Z,96402.20
2019-03-16T09:00:37.867Z,96393.73
2019-03-16T09:03:11.997Z,96387.99
2019-03-16T09:05:41.116Z,96384.31
2019-03-16T09:08:25.309Z,96377.77
2019-03-16T09:10:54.391Z,96385.53
2019-03-16T09:13:23.831Z,96375.23
2019-03-16T09:15:53.046Z,96374.31
2019-03-16T09:18:25.688Z,96370.23
2019-03-16T09:20:56.103Z,96372.70
2019-03-16T09:23:32.472Z,96369.80
2019-03-16T09:26:09.184Z,96357.56
2019-03-16T09:28:44.630Z,96358.48
2019-03-16T09:31:13.846Z,96358.16
2019-03-16T09:33:47.507Z,96354.77
2019-03-16T09:36:18.101Z,96361.61
2019-03-16T09:38:47.133Z,96355.26
2019-03-16T09:41:16.245Z,96348.44
2019-03-16T09:43:45.544Z,96345.80
2019-03-16T09:46:14.603Z,96344.77
2019-03-16T09:48:49.263Z,96342.85
2019-03-16T09:51:18.475Z,96344.25
2019-03-16T09:53:47.512Z,96348.77
2019-03-16T09:56:16.572Z,96353.53
2019-03-16T09:58:45.822Z,96344.55
2019-03-16T10:01:16.070Z,96068.96
2019-03-16T10:03:52.167Z,96345.66
2019-03-16T10:06:21.551Z,96344.78
2019-03-16T10:08:59.764Z,96341.64
2019-03-16T10:11:29.131Z,96344.55
2019-03-16T10:13:58.144Z,96343.94
2019-03-16T10:16:27.260Z,96336.10
2019-03-16T10:18:57.410Z,96337.70
2019-03-16T10:21:26.413Z,96337.93
2019-03-16T10:23:55.490Z,96329.98
2019-03-16T10:26:24.558Z,96334.29
2019-03-16T10:28:53.808Z,96332.91
2019-03-16T10:31:26.454Z,96360.14
2019-03-16T10:33:55.524Z,96325.24
2019-03-16T10:36:24.635Z,96332.35
2019-03-16T10:38:53.719Z,96331.31
2019-03-16T10:41:25.057Z,96334.48
2019-03-16T10:43:54.660Z,96326.48
2019-03-16T10:46:24.733Z,96328.36
2019-03-16T10:48:53.909Z,96321.77
2019-03-16T10:51:22.948Z,96320.17
2019-03-16T10:53:52.280Z,96201.91
2019-03-16T10:56:22.498Z,96321.79
2019-03-16T10:58:56.755Z,96325.78
2019-03-16T11:01:24.937Z,96324.14
2019-03-16T11:03:57.291Z,96321.56
2019-03-16T11:06:26.328Z,96319.45
2019-03-16T11:08:55.411Z,96319.72
2019-03-16T11:11:25.630Z,96312.56
2019-03-16T11:13:54.590Z,96301.34
2019-03-16T11:16:24.012Z,96288.63
2019-03-16T11:18:53.110Z,96288.72
2019-03-16T11:21:28.583Z,96294.27
2019-03-16T11:24:00.477Z,96292.44
2019-03-16T11:26:32.057Z,96277.86
2019-03-16T11:29:08.829Z,96278.12
2019-03-16T11:31:33.974Z,96268.31
2019-03-16T11:34:03.201Z,96270.61
2019-03-16T11:36:32.489Z,96273.84
2019-03-16T11:39:01.808Z,96276.71
2019-03-16T11:41:31.206Z,96267.31
2019-03-16T11:44:00.726Z,96258.56
2019-03-16T11:46:32.321Z,96263.09
2019-03-16T11:49:01.357Z,96257.14
2019-03-16T11:51:30.411Z,96247.50
2019-03-16T11:53:59.471Z,96254.19
2019-03-16T11:56:28.547Z,96248.91
2019-03-16T11:58:57.603Z,96245.87
2019-03-16T12:01:26.687Z,96249.78
2019-03-16T12:03:55.771Z,96246.58
2019-03-16T12:06:24.893Z,96236.70
2019-03-16T12:08:54.069Z,96238.23
2019-03-16T12:11:23.161Z,96232.91
2019-03-16T12:13:53.508Z,96240.80
2019-03-16T12:16:25.058Z,96238.47
2019-03-16T12:18:54.317Z,96233.85
2019-03-16T12:21:24.551Z,96227.86
2019-03-16T12:23:53.652Z,96211.80
2019-03-16T12:26:22.833Z,96217.73
2019-03-16T12:28:53.723Z,96215.56
2019-03-16T12:31:24.387Z,96212.06
2019-03-16T12:33:56.351Z,96210.34
2019-03-16T12:36:25.484Z,96202.08
2019-03-16T12:38:54.610Z,96181.84
2019-03-16T12:41:23.766Z,96193.09
2019-03-16T12:43:53.235Z,96186.27
2019-03-16T12:46:24.821Z,96177.78
2019-03-16T12:48:53.893Z,96175.30
2019-03-16T12:51:23.244Z,96174.98
2019-03-16T12:53:56.079Z,96187.75
2019-03-16T12:56:25.352Z,96180.29
2019-03-16T12:59:09.518Z,96184.11
2019-03-16T13:01:28.639Z,96181.13
2019-03-16T13:03:59.322Z,96171.98
2019-03-16T13:06:28.396Z,96167.39
2019-03-16T13:08:57.769Z,96162.44
2019-03-16T13:11:26.846Z,96161.94
2019-03-16T13:13:55.925Z,96162.95
2019-03-16T13:16:24.983Z,96156.73
2019-03-16T13:19:00.166Z,96153.80
2019-03-16T13:21:33.546Z,96154.73
2019-03-16T13:24:04.901Z,96153.88
2019-03-16T13:26:33.780Z,96148.36
2019-03-16T13:29:02.873Z,96137.77
2019-03-16T13:31:33.168Z,96138.28
2019-03-16T13:34:04.257Z,96134.93
2019-03-16T13:36:33.339Z,96127.91
2019-03-16T13:39:14.055Z,96136.20
2019-03-16T13:41:48.236Z,96123.38
2019-03-16T13:44:18.553Z,96129.66
2019-03-16T13:46:48.578Z,96127.55
2019-03-16T13:49:17.649Z,96122.91
2019-03-16T13:51:47.929Z,96114.29
2019-03-16T13:54:19.548Z,96121.54
2019-03-16T13:56:49.441Z,96120.87
2019-03-16T13:59:18.649Z,96119.27
2019-03-16T14:01:50.786Z,96122.75
2019-03-16T14:04:19.798Z,96117.07
2019-03-16T14:06:49.169Z,96108.03
2019-03-16T14:09:25.735Z,96104.16
2019-03-16T14:11:54.969Z,96109.78
2019-03-16T14:14:24.236Z,96105.23
2019-03-16T14:16:53.367Z,96099.86
2019-03-16T14:19:22.606Z,96101.97
2019-03-16T14:21:51.664Z,96111.11
2019-03-16T14:24:23.689Z,96097.13
2019-03-16T14:26:53.102Z,96098.97
2019-03-16T14:29:25.420Z,96097.64
2019-03-16T14:31:54.492Z,96096.32
2019-03-16T14:34:23.545Z,96100.67
2019-03-16T14:36:52.610Z,96094.61
2019-03-16T14:39:22.118Z,96092.25
2019-03-16T14:41:59.133Z,96087.89
2019-03-16T14:44:28.215Z,96090.34
2019-03-16T14:49:54.157Z,96074.01
2019-03-16T14:52:24.266Z,96080.05
2019-03-16T14:54:54.770Z,96073.77
2019-03-16T14:57:26.597Z,96073.95
2019-03-16T14:59:59.642Z,96071.58
2019-03-16T15:02:32.088Z,96062.58
2019-03-16T15:05:01.573Z,96065.33
2019-03-16T15:07:33.305Z,96064.98
2019-03-16T15:10:03.941Z,96067.83
2019-03-16T15:12:41.459Z,96068.77
2019-03-16T15:15:15.910Z,96061.92
2019-03-16T15:17:49.630Z,96061.09
2019-03-16T15:20:18.736Z,96054.41
2019-03-16T15:22:47.868Z,96052.67
2019-03-16T15:25:19.072Z,96040.38
2019-03-16T15:27:52.639Z,96041.36
2019-03-16T15:30:22.003Z,96034.22
2019-03-16T15:32:53.188Z,96036.22
2019-03-16T15:35:24.618Z,96029.72
2019-03-16T15:37:54.091Z,96027.69
2019-03-16T15:40:23.200Z,96021.64
2019-03-16T15:42:52.247Z,96022.07
2019-03-16T15:45:21.587Z,96023.55
2019-03-16T15:47:52.373Z,96010.28
2019-03-16T15:50:21.407Z,96021.85
2019-03-16T15:52:50.524Z,96005.06
2019-03-16T15:55:21.673Z,96002.30
2019-03-16T15:57:52.055Z,96005.11
2019-03-16T16:00:25.283Z,95996.81
2019-03-16T16:02:57.681Z,96000.01
2019-03-16T16:05:26.786Z,95987.31
2019-03-16T16:07:55.897Z,96020.23
2019-03-16T16:10:24.924Z,95981.72
2019-03-16T16:12:54.015Z,95987.09
2019-03-16T16:15:23.094Z,95983.77
2019-03-16T16:17:52.346Z,95977.83
2019-03-16T16:20:21.464Z,95968.68
2019-03-16T16:22:51.661Z,95958.33
2019-03-16T16:25:28.003Z,95956.37
2019-03-16T16:28:01.179Z,95955.95
2019-03-16T16:30:34.771Z,95950.55
2019-03-16T16:33:07.961Z,95950.80
2019-03-16T16:35:44.467Z,95949.23
2019-03-16T16:38:13.523Z,95947.41
2019-03-16T16:40:44.184Z,95950.44
2019-03-16T16:43:15.417Z,95936.08
2019-03-16T16:45:46.818Z,95934.67
2019-03-16T16:48:15.291Z,95937.22
2019-03-16T16:50:50.778Z,95936.16
2019-03-16T16:53:24.400Z,95935.62
2019-03-16T16:56:13.962Z,95931.05
2019-03-16T16:58:46.077Z,95929.76
2019-03-16T17:01:15.163Z,95920.15
2019-03-16T17:03:44.211Z,95921.05
2019-03-16T17:06:13.307Z,95915.22
2019-03-16T17:08:42.359Z,94791.43
2019-03-16T17:11:12.848Z,95908.62
2019-03-16T17:13:45.031Z,95913.41
2019-03-16T17:16:18.579Z,95908.55
2019-03-16T17:18:47.635Z,95906.89
2019-03-16T17:21:16.689Z,95904.80
2019-03-16T17:23:45.771Z,95903.84
2019-03-16T17:26:14.840Z,95902.25
2019-03-16T17:28:43.878Z,95897.77
2019-03-16T17:31:14.071Z,95895.81
2019-03-16T17:33:43.514Z,95891.17
2019-03-16T17:36:17.036Z,95887.45
2019-03-16T17:38:46.179Z,95892.07
2019-03-16T17:41:15.222Z,95895.33
2019-03-16T17:43:44.277Z,95893.48
2019-03-16T17:46:13.365Z,95911.53
2019-03-16T17:48:48.355Z,95895.92
2019-03-16T17:51:17.795Z,95901.53
2019-03-16T17:53:50.527Z,95906.66
2019-03-16T17:56:19.604Z,95899.87
2019-03-16T17:58:48.662Z,95898.38
2019-03-16T18:01:17.721Z,95897.64
2019-03-16T18:03:47.088Z,95899.02
2019-03-16T18:06:16.168Z,95895.19
2019-03-16T18:08:46.763Z,95893.75
2019-03-16T18:11:18.201Z,95891.33
2019-03-16T18:13:50.799Z,95886.89
2019-03-16T18:16:21.016Z,95886.44
2019-03-16T18:18:50.087Z,95876.61
2019-03-16T18:21:19.135Z,95877.23
2019-03-16T18:23:49.169Z,95878.11
2019-03-16T18:26:18.206Z,95874.14
2019-03-16T18:28:47.252Z,95871.31
2019-03-16T18:31:23.761Z,95871.07
2019-03-16T18:33:53.182Z,95878.49
2019-03-16T18:36:28.519Z,95879.30
2019-03-16T18:38:57.602Z,95875.87
2019-03-16T18:41:27.887Z,95874.53
2019-03-16T18:43:57.377Z,95872.41
2019-03-16T18:46:26.597Z,95866.28
2019-03-16T18:48:59.127Z,95858.86
2019-03-16T18:51:29.912Z,95868.94
2019-03-16T18:53:59.933Z,95863.77
2019-03-16T18:56:29.513Z,95861.67
2019-03-16T18:59:00.862Z,95863.20
2019-03-16T19:01:30.477Z,95863.52
2019-03-16T19:04:00.618Z,95865.00
2019-03-16T19:06:29.783Z,95860.42
2019-03-16T19:08:59.234Z,95857.34
2019-03-16T19:11:28.434Z,95861.20
2019-03-16T19:13:57.488Z,95855.41
2019-03-16T19:16:26.603Z,95853.84
2019-03-16T19:18:55.793Z,95851.98
2019-03-16T19:21:25.442Z,95842.01
2019-03-16T19:23:56.252Z,95844.52
2019-03-16T19:26:25.659Z,95847.34
2019-03-16T19:28:55.050Z,95841.48
2019-03-16T19:31:26.331Z,95832.95
2019-03-16T19:33:59.895Z,95826.17
2019-03-16T19:36:29.030Z,95828.15
2019-03-16T19:38:58.095Z,95819.98
2019-03-16T19:41:27.159Z,95823.05
2019-03-16T19:43:56.187Z,95818.72
2019-03-16T19:46:25.277Z,95810.55
2019-03-16T19:48:54.356Z,95812.81
2019-03-16T19:51:23.411Z,95803.10
2019-03-16T19:53:53.698Z,95799.27
2019-03-16T19:56:24.444Z,95801.51
2019-03-16T19:59:00.855Z,95812.73
2019-03-16T20:01:32.102Z,95789.95
2019-03-16T20:04:00.636Z,95784.17
2019-03-16T20:06:34.767Z,95779.88
2019-03-16T20:09:04.903Z,95768.95
2019-03-16T20:11:33.969Z,95771.44
2019-03-16T20:14:03.039Z,95771.28
2019-03-16T20:16:32.086Z,95774.40
2019-03-16T20:19:01.649Z,95769.42
2019-03-16T20:21:32.475Z,95764.46
2019-03-16T20:24:09.824Z,95765.23
2019-03-16T20:26:38.995Z,95764.99
2019-03-16T20:29:08.492Z,95765.52
2019-03-16T20:31:46.703Z,95769.75
2019-03-16T20:34:10.352Z,95767.34
2019-03-16T20:36:40.416Z,95771.31
2019-03-16T20:39:09.529Z,95770.78
2019-03-16T20:41:38.556Z,95770.02
2019-03-16T20:44:13.505Z,95776.04
2019-03-16T20:46:47.185Z,95773.41
2019-03-16T20:49:16.319Z,95764.75
2019-03-16T20:51:49.466Z,95766.88
2019-03-16T20:54:22.543Z,95761.80
2019-03-16T20:56:51.716Z,95764.44
2019-03-16T20:59:23.909Z,95757.57
2019-03-16T21:01:53.039Z,95761.63
2019-03-16T21:04:24.108Z,95760.55
2019-03-16T21:06:53.320Z,95759.97
2019-03-16T21:09:22.388Z,95758.63
2019-03-16T21:11:51.488Z,95755.45
2019-03-16T21:14:21.858Z,95757.09
2019-03-16T21:16:50.950Z,95760.75
2019-03-16T21:19:22.591Z,95760.50
2019-03-16T21:21:52.391Z,95766.75
2019-03-16T21:24:22.659Z,95764.73
2019-03-16T21:26:53.039Z,95767.39
2019-03-16T21:29:22.192Z,95765.75
2019-03-16T21:31:52.377Z,95770.05
2019-03-16T21:34:24.558Z,95759.20
2019-03-16T21:36:56.019Z,95760.33
2019-03-16T21:39:26.482Z,95758.16
2019-03-16T21:42:00.079Z,95760.56
2019-03-16T21:44:32.210Z,95754.47
2019-03-16T21:47:03.001Z,95752.16
2019-03-16T21:49:34.813Z,95751.59
2019-03-16T21:52:09.113Z,95744.48
2019-03-16T21:54:41.952Z,95748.97
2019-03-16T21:57:14.460Z,95746.14
2019-03-16T21:59:43.583Z,95745.80
2019-03-16T22:02:12.644Z,95750.58
2019-03-16T22:04:41.713Z,95747.95
2019-03-16T22:07:10.754Z,95741.88
2019-03-16T22:09:39.812Z,95746.02
2019-03-16T22:12:08.906Z,95739.44
2019-03-16T22:14:37.954Z,95742.31
2019-03-16T22:17:07.037Z,95733.09
2019-03-16T22:19:36.087Z,95729.91
2019-03-16T22:22:05.554Z,95730.97
2019-03-16T22:24:38.095Z,95734.33
2019-03-16T22:27:10.176Z,95730.94
2019-03-16T22:29:39.276Z,95729.02
2019-03-16T22:32:08.383Z,95728.26
2019-03-16T22:34:37.454Z,95724.50
2019-03-16T22:37:07.832Z,95718.45
2019-03-16T22:39:38.278Z,95721.20
2019-03-16T22:42:07.375Z,95720.13
2019-03-16T22:44:42.498Z,95717.94
2019-03-16T22:47:14.797Z,95721.15
2019-03-16T22:49:43.886Z,95715.70
2019-03-16T22:52:12.911Z,95714.70
2019-03-16T22:54:41.993Z,95708.69
2019-03-16T22:57:11.645Z,95704.74
2019-03-16T22:59:41.071Z,95707.03
2019-03-16T23:02:11.804Z,95695.73
2019-03-16T23:04:43.256Z,95700.20
2019-03-16T23:07:12.281Z,95696.62
2019-03-16T23:09:41.330Z,95689.16
2019-03-16T23:12:10.395Z,95688.30
2019-03-16T23:14:39.736Z,95687.34
2019-03-16T23:17:09.891Z,95684.57
2019-03-16T23:19:39.421Z,95681.90
2019-03-16T23:22:17.575Z,95676.15
2019-03-16T23:24:46.739Z,95672.35
2019-03-16T23:27:15.790Z,95662.33
2019-03-16T23:29:44.852Z,95657.06
2019-03-16T23:32:13.879Z,95647.76
2019-03-16T23:34:42.924Z,95646.53
2019-03-16T23:37:12.239Z,95645.92
2019-03-16T23:39:43.929Z,95635.92
2019-03-16T23:42:13.057Z,95635.41
2019-03-16T23:44:42.167Z,95636.59
2019-03-16T23:47:11.250Z,95627.13
2019-03-16T23:49:40.326Z,95625.62
2019-03-16T23:52:09.390Z,95621.34
2019-03-16T23:54:38.438Z,95619.97
2019-03-16T23:57:07.811Z,95614.73
2019-03-16T23:59:40.625Z,95609.02
